Vinton, Virginia
Current Conditions -  °F | °C
As of 1:54 PM on Friday 24 Oct 2014 (Local Time) from KROA Reporting Station
Broken Clouds Broken Clouds  
Wind Chill: 66°   Ceiling: 25000
Heat Index: 66°   Visibility: 10mi
Dew Point: 42°   Wind: 3mph
Humidity: 42%   Direction: 220°SW
Pressure: 30.02"   Gusts: NA
Location:  37.28°N, 79.9°W
Report Text: KROA 241754Z 22003KT 10SM BKN250 19/06 A3002 RMK AO2 SLP164 60000 T01890056 10189 20083 58023
Loading
Personal Weather Stations






























Interactive Weather Map
Tropical Storm Tracking
New forecast layout! Learn more

10-Day Weather Forecast

Advertisements
Track Severe Weather on mobile